sensor_id;sensor_type;location;lat;lon;timestamp;P1;durP1;ratioP1;P2;durP2;ratioP2
7116;SDS011;3600;48.568;7.870;2023-10-31T00:00:16;0.63;;;0.63;;
7116;SDS011;3600;48.568;7.870;2023-10-31T00:02:43;1.02;;;0.50;;
7116;SDS011;3600;48.568;7.870;2023-10-31T00:05:10;0.60;;;0.60;;
7116;SDS011;3600;48.568;7.870;2023-10-31T00:07:37;0.57;;;0.50;;
7116;SDS011;3600;48.568;7.870;2023-10-31T00:10:04;1.20;;;0.50;;
7116;SDS011;3600;48.568;7.870;2023-10-31T00:12:32;0.57;;;0.40;;
7116;SDS011;3600;48.568;7.870;2023-10-31T00:14:58;0.63;;;0.55;;
7116;SDS011;3600;48.568;7.870;2023-10-31T00:17:25;0.68;;;0.60;;
7116;SDS011;3600;48.568;7.870;2023-10-31T00:19:52;0.98;;;0.63;;
7116;SDS011;3600;48.568;7.870;2023-10-31T00:22:19;0.90;;;0.50;;
7116;SDS011;3600;48.568;7.870;2023-10-31T00:24:46;1.42;;;0.50;;
7116;SDS011;3600;48.568;7.870;2023-10-31T00:27:13;0.70;;;0.70;;
7116;SDS011;3600;48.568;7.870;2023-10-31T00:29:40;0.60;;;0.60;;
7116;SDS011;3600;48.568;7.870;2023-10-31T00:32:07;1.10;;;0.65;;
7116;SDS011;3600;48.568;7.870;2023-10-31T00:34:34;0.98;;;0.77;;
7116;SDS011;3600;48.568;7.870;2023-10-31T00:37:01;1.88;;;0.75;;
7116;SDS011;3600;48.568;7.870;2023-10-31T00:39:28;2.00;;;0.93;;
7116;SDS011;3600;48.568;7.870;2023-10-31T00:41:55;1.23;;;0.93;;
7116;SDS011;3600;48.568;7.870;2023-10-31T00:44:21;1.45;;;0.90;;
7116;SDS011;3600;48.568;7.870;2023-10-31T00:46:48;0.70;;;0.70;;
7116;SDS011;3600;48.568;7.870;2023-10-31T00:49:15;1.27;;;0.70;;
7116;SDS011;3600;48.568;7.870;2023-10-31T00:51:42;1.73;;;0.80;;
7116;SDS011;3600;48.568;7.870;2023-10-31T00:54:09;0.55;;;0.55;;
7116;SDS011;3600;48.568;7.870;2023-10-31T00:56:35;1.15;;;0.60;;
7116;SDS011;3600;48.568;7.870;2023-10-31T00:59:02;1.00;;;0.75;;
7116;SDS011;3600;48.568;7.870;2023-10-31T01:01:29;1.27;;;0.85;;
7116;SDS011;3600;48.568;7.870;2023-10-31T01:03:56;0.52;;;0.52;;
7116;SDS011;3600;48.568;7.870;2023-10-31T01:06:23;2.03;;;0.80;;
7116;SDS011;3600;48.568;7.870;2023-10-31T01:08:50;0.50;;;0.50;;
7116;SDS011;3600;48.568;7.870;2023-10-31T01:11:17;1.00;;;0.63;;
7116;SDS011;3600;48.568;7.870;2023-10-31T01:13:43;3.40;;;0.68;;
7116;SDS011;3600;48.568;7.870;2023-10-31T01:16:10;1.00;;;0.65;;
7116;SDS011;3600;48.568;7.870;2023-10-31T01:18:38;0.60;;;0.60;;
7116;SDS011;3600;48.568;7.870;2023-10-31T01:21:05;0.57;;;0.47;;
7116;SDS011;3600;48.568;7.870;2023-10-31T01:23:32;0.43;;;0.43;;
7116;SDS011;3600;48.568;7.870;2023-10-31T01:25:59;0.52;;;0.50;;
7116;SDS011;3600;48.568;7.870;2023-10-31T01:28:25;1.02;;;0.80;;
7116;SDS011;3600;48.568;7.870;2023-10-31T01:30:52;0.95;;;0.60;;
7116;SDS011;3600;48.568;7.870;2023-10-31T01:33:19;1.75;;;0.73;;
7116;SDS011;3600;48.568;7.870;2023-10-31T01:35:47;0.75;;;0.70;;
7116;SDS011;3600;48.568;7.870;2023-10-31T01:38:14;1.08;;;0.65;;
7116;SDS011;3600;48.568;7.870;2023-10-31T01:40:41;1.38;;;0.80;;
7116;SDS011;3600;48.568;7.870;2023-10-31T01:43:08;1.10;;;0.40;;
7116;SDS011;3600;48.568;7.870;2023-10-31T01:45:35;1.00;;;0.93;;
7116;SDS011;3600;48.568;7.870;2023-10-31T01:48:02;2.20;;;0.60;;
7116;SDS011;3600;48.568;7.870;2023-10-31T01:50:29;1.55;;;0.68;;
7116;SDS011;3600;48.568;7.870;2023-10-31T01:52:56;1.40;;;0.52;;
7116;SDS011;3600;48.568;7.870;2023-10-31T01:55:23;0.88;;;0.77;;
7116;SDS011;3600;48.568;7.870;2023-10-31T01:57:53;2.03;;;0.70;;
7116;SDS011;3600;48.568;7.870;2023-10-31T02:00:20;0.55;;;0.55;;
7116;SDS011;3600;48.568;7.870;2023-10-31T02:02:47;1.02;;;0.80;;
7116;SDS011;3600;48.568;7.870;2023-10-31T02:05:18;0.63;;;0.50;;
7116;SDS011;3600;48.568;7.870;2023-10-31T02:07:45;3.00;;;0.68;;
7116;SDS011;3600;48.568;7.870;2023-10-31T02:10:12;0.60;;;0.60;;
7116;SDS011;3600;48.568;7.870;2023-10-31T02:12:39;1.10;;;0.50;;
7116;SDS011;3600;48.568;7.870;2023-10-31T02:15:08;2.20;;;0.40;;
7116;SDS011;3600;48.568;7.870;2023-10-31T02:17:35;0.45;;;0.45;;
7116;SDS011;3600;48.568;7.870;2023-10-31T02:20:02;1.50;;;0.60;;
7116;SDS011;3600;48.568;7.870;2023-10-31T02:22:29;0.93;;;0.52;;
7116;SDS011;3600;48.568;7.870;2023-10-31T02:24:56;1.13;;;0.50;;
7116;SDS011;3600;48.568;7.870;2023-10-31T02:27:22;1.60;;;0.60;;
7116;SDS011;3600;48.568;7.870;2023-10-31T02:29:49;0.93;;;0.60;;
7116;SDS011;3600;48.568;7.870;2023-10-31T02:32:16;2.65;;;0.60;;
7116;SDS011;3600;48.568;7.870;2023-10-31T02:34:46;1.48;;;0.80;;
7116;SDS011;3600;48.568;7.870;2023-10-31T02:37:14;0.70;;;0.70;;
7116;SDS011;3600;48.568;7.870;2023-10-31T02:39:41;0.98;;;0.63;;
7116;SDS011;3600;48.568;7.870;2023-10-31T02:42:08;0.95;;;0.50;;
7116;SDS011;3600;48.568;7.870;2023-10-31T02:44:34;0.50;;;0.50;;
7116;SDS011;3600;48.568;7.870;2023-10-31T02:47:01;0.70;;;0.52;;
7116;SDS011;3600;48.568;7.870;2023-10-31T02:49:28;0.90;;;0.50;;
7116;SDS011;3600;48.568;7.870;2023-10-31T02:51:55;0.70;;;0.60;;
7116;SDS011;3600;48.568;7.870;2023-10-31T02:54:22;3.25;;;0.60;;
7116;SDS011;3600;48.568;7.870;2023-10-31T02:56:48;1.90;;;0.60;;
7116;SDS011;3600;48.568;7.870;2023-10-31T02:59:15;0.57;;;0.52;;
7116;SDS011;3600;48.568;7.870;2023-10-31T03:01:45;1.65;;;0.60;;
7116;SDS011;3600;48.568;7.870;2023-10-31T03:04:16;1.60;;;0.63;;
7116;SDS011;3600;48.568;7.870;2023-10-31T03:06:42;0.35;;;0.35;;
7116;SDS011;3600;48.568;7.870;2023-10-31T03:09:09;0.75;;;0.40;;
7116;SDS011;3600;48.568;7.870;2023-10-31T03:11:36;0.73;;;0.73;;
7116;SDS011;3600;48.568;7.870;2023-10-31T03:14:03;1.02;;;0.60;;
7116;SDS011;3600;48.568;7.870;2023-10-31T03:16:30;0.73;;;0.60;;
7116;SDS011;3600;48.568;7.870;2023-10-31T03:18:57;2.63;;;0.75;;
7116;SDS011;3600;48.568;7.870;2023-10-31T03:21:23;0.68;;;0.40;;
7116;SDS011;3600;48.568;7.870;2023-10-31T03:23:50;1.85;;;0.38;;
7116;SDS011;3600;48.568;7.870;2023-10-31T03:26:19;0.82;;;0.50;;
7116;SDS011;3600;48.568;7.870;2023-10-31T03:28:46;0.63;;;0.40;;
7116;SDS011;3600;48.568;7.870;2023-10-31T03:31:13;0.65;;;0.60;;
7116;SDS011;3600;48.568;7.870;2023-10-31T03:33:40;0.68;;;0.52;;
7116;SDS011;3600;48.568;7.870;2023-10-31T03:36:08;0.60;;;0.60;;
7116;SDS011;3600;48.568;7.870;2023-10-31T03:38:35;2.75;;;0.60;;
7116;SDS011;3600;48.568;7.870;2023-10-31T03:41:02;0.45;;;0.45;;
7116;SDS011;3600;48.568;7.870;2023-10-31T03:43:30;2.30;;;0.88;;
7116;SDS011;3600;48.568;7.870;2023-10-31T03:45:56;0.68;;;0.68;;
7116;SDS011;3600;48.568;7.870;2023-10-31T03:48:23;1.65;;;1.13;;
7116;SDS011;3600;48.568;7.870;2023-10-31T03:50:51;2.75;;;0.60;;
7116;SDS011;3600;48.568;7.870;2023-10-31T03:53:18;1.90;;;0.70;;
7116;SDS011;3600;48.568;7.870;2023-10-31T03:55:45;1.23;;;0.82;;
7116;SDS011;3600;48.568;7.870;2023-10-31T03:58:12;0.65;;;0.60;;
7116;SDS011;3600;48.568;7.870;2023-10-31T04:00:38;1.85;;;0.57;;
7116;SDS011;3600;48.568;7.870;2023-10-31T04:03:07;0.73;;;0.70;;
7116;SDS011;3600;48.568;7.870;2023-10-31T04:05:34;0.75;;;0.52;;
7116;SDS011;3600;48.568;7.870;2023-10-31T04:08:01;0.65;;;0.60;;
7116;SDS011;3600;48.568;7.870;2023-10-31T04:10:28;1.00;;;0.73;;
7116;SDS011;3600;48.568;7.870;2023-10-31T04:12:55;1.75;;;0.50;;
7116;SDS011;3600;48.568;7.870;2023-10-31T04:15:22;1.60;;;0.60;;
7116;SDS011;3600;48.568;7.870;2023-10-31T04:17:48;0.60;;;0.60;;
7116;SDS011;3600;48.568;7.870;2023-10-31T04:20:15;0.68;;;0.55;;
7116;SDS011;3600;48.568;7.870;2023-10-31T04:22:42;1.13;;;0.70;;
7116;SDS011;3600;48.568;7.870;2023-10-31T04:25:09;0.82;;;0.40;;
7116;SDS011;3600;48.568;7.870;2023-10-31T04:27:36;1.52;;;0.52;;
7116;SDS011;3600;48.568;7.870;2023-10-31T04:30:03;1.10;;;0.55;;
7116;SDS011;3600;48.568;7.870;2023-10-31T04:32:30;0.40;;;0.40;;
7116;SDS011;3600;48.568;7.870;2023-10-31T04:34:57;0.68;;;0.68;;
7116;SDS011;3600;48.568;7.870;2023-10-31T04:37:24;1.13;;;0.60;;
7116;SDS011;3600;48.568;7.870;2023-10-31T04:39:51;0.65;;;0.60;;
7116;SDS011;3600;48.568;7.870;2023-10-31T04:42:17;1.65;;;0.50;;
7116;SDS011;3600;48.568;7.870;2023-10-31T04:44:46;1.23;;;0.68;;
7116;SDS011;3600;48.568;7.870;2023-10-31T04:47:13;1.63;;;0.88;;
7116;SDS011;3600;48.568;7.870;2023-10-31T04:49:40;1.23;;;0.70;;
7116;SDS011;3600;48.568;7.870;2023-10-31T04:52:07;0.80;;;0.70;;
7116;SDS011;3600;48.568;7.870;2023-10-31T04:54:34;2.13;;;0.68;;
7116;SDS011;3600;48.568;7.870;2023-10-31T04:57:01;1.20;;;0.47;;
7116;SDS011;3600;48.568;7.870;2023-10-31T04:59:29;0.80;;;0.77;;
7116;SDS011;3600;48.568;7.870;2023-10-31T05:01:56;1.05;;;0.88;;
7116;SDS011;3600;48.568;7.870;2023-10-31T05:04:22;0.70;;;0.70;;
7116;SDS011;3600;48.568;7.870;2023-10-31T05:06:49;1.40;;;0.63;;
7116;SDS011;3600;48.568;7.870;2023-10-31T05:09:16;1.23;;;0.80;;
7116;SDS011;3600;48.568;7.870;2023-10-31T05:11:44;0.75;;;0.60;;
7116;SDS011;3600;48.568;7.870;2023-10-31T05:14:11;1.05;;;0.93;;
7116;SDS011;3600;48.568;7.870;2023-10-31T05:16:39;2.08;;;0.68;;
7116;SDS011;3600;48.568;7.870;2023-10-31T05:19:09;1.75;;;0.60;;
7116;SDS011;3600;48.568;7.870;2023-10-31T05:21:36;2.33;;;0.93;;
7116;SDS011;3600;48.568;7.870;2023-10-31T05:24:03;0.77;;;0.63;;
7116;SDS011;3600;48.568;7.870;2023-10-31T05:26:31;1.48;;;1.02;;
7116;SDS011;3600;48.568;7.870;2023-10-31T05:28:57;0.77;;;0.68;;
7116;SDS011;3600;48.568;7.870;2023-10-31T05:31:27;2.38;;;0.82;;
7116;SDS011;3600;48.568;7.870;2023-10-31T05:33:54;0.85;;;0.52;;
7116;SDS011;3600;48.568;7.870;2023-10-31T05:36:22;1.25;;;1.08;;
7116;SDS011;3600;48.568;7.870;2023-10-31T05:38:49;0.60;;;0.60;;
7116;SDS011;3600;48.568;7.870;2023-10-31T05:41:16;1.05;;;0.70;;
7116;SDS011;3600;48.568;7.870;2023-10-31T05:43:43;1.85;;;0.80;;
7116;SDS011;3600;48.568;7.870;2023-10-31T05:46:10;0.98;;;0.60;;
7116;SDS011;3600;48.568;7.870;2023-10-31T05:48:43;2.20;;;1.10;;
7116;SDS011;3600;48.568;7.870;2023-10-31T05:51:18;1.65;;;1.15;;
7116;SDS011;3600;48.568;7.870;2023-10-31T05:53:45;1.88;;;1.08;;
7116;SDS011;3600;48.568;7.870;2023-10-31T05:56:14;0.90;;;0.70;;
7116;SDS011;3600;48.568;7.870;2023-10-31T05:58:41;1.45;;;1.10;;
7116;SDS011;3600;48.568;7.870;2023-10-31T06:01:09;2.05;;;1.00;;
7116;SDS011;3600;48.568;7.870;2023-10-31T06:03:36;1.63;;;0.93;;
7116;SDS011;3600;48.568;7.870;2023-10-31T06:06:03;2.33;;;1.17;;
7116;SDS011;3600;48.568;7.870;2023-10-31T06:08:31;5.35;;;1.38;;
7116;SDS011;3600;48.568;7.870;2023-10-31T06:10:57;3.05;;;0.90;;
7116;SDS011;3600;48.568;7.870;2023-10-31T06:13:27;1.15;;;0.95;;
7116;SDS011;3600;48.568;7.870;2023-10-31T06:15:54;0.70;;;0.70;;
7116;SDS011;3600;48.568;7.870;2023-10-31T06:18:26;2.08;;;1.13;;
7116;SDS011;3600;48.568;7.870;2023-10-31T06:20:53;1.00;;;0.80;;
7116;SDS011;3600;48.568;7.870;2023-10-31T06:23:20;1.48;;;1.05;;
7116;SDS011;3600;48.568;7.870;2023-10-31T06:25:47;3.95;;;1.58;;
7116;SDS011;3600;48.568;7.870;2023-10-31T06:28:14;1.83;;;1.73;;
7116;SDS011;3600;48.568;7.870;2023-10-31T06:30:40;3.35;;;1.67;;
7116;SDS011;3600;48.568;7.870;2023-10-31T06:33:07;2.05;;;1.23;;
7116;SDS011;3600;48.568;7.870;2023-10-31T06:35:35;2.10;;;0.88;;
7116;SDS011;3600;48.568;7.870;2023-10-31T06:38:02;2.50;;;0.85;;
7116;SDS011;3600;48.568;7.870;2023-10-31T06:40:29;3.80;;;1.23;;
7116;SDS011;3600;48.568;7.870;2023-10-31T06:42:55;4.03;;;1.30;;
7116;SDS011;3600;48.568;7.870;2023-10-31T06:45:22;0.88;;;0.88;;
7116;SDS011;3600;48.568;7.870;2023-10-31T06:47:49;1.52;;;1.13;;
7116;SDS011;3600;48.568;7.870;2023-10-31T06:50:16;2.33;;;1.20;;
7116;SDS011;3600;48.568;7.870;2023-10-31T06:52:46;2.15;;;1.17;;
7116;SDS011;3600;48.568;7.870;2023-10-31T06:55:13;3.92;;;1.10;;
7116;SDS011;3600;48.568;7.870;2023-10-31T06:57:40;1.80;;;1.48;;
7116;SDS011;3600;48.568;7.870;2023-10-31T07:00:07;2.67;;;1.38;;
7116;SDS011;3600;48.568;7.870;2023-10-31T07:02:35;2.63;;;1.55;;
7116;SDS011;3600;48.568;7.870;2023-10-31T07:05:03;4.93;;;1.70;;
7116;SDS011;3600;48.568;7.870;2023-10-31T07:07:30;4.07;;;1.95;;
7116;SDS011;3600;48.568;7.870;2023-10-31T07:09:57;6.97;;;2.15;;
7116;SDS011;3600;48.568;7.870;2023-10-31T07:12:24;2.00;;;1.90;;
7116;SDS011;3600;48.568;7.870;2023-10-31T07:14:51;3.08;;;1.50;;
7116;SDS011;3600;48.568;7.870;2023-10-31T07:17:19;1.52;;;1.42;;
7116;SDS011;3600;48.568;7.870;2023-10-31T07:19:46;2.67;;;1.60;;
7116;SDS011;3600;48.568;7.870;2023-10-31T07:22:13;2.83;;;1.52;;
7116;SDS011;3600;48.568;7.870;2023-10-31T07:24:39;2.65;;;1.63;;
7116;SDS011;3600;48.568;7.870;2023-10-31T07:27:06;1.67;;;1.55;;
7116;SDS011;3600;48.568;7.870;2023-10-31T07:29:33;2.72;;;1.42;;
7116;SDS011;3600;48.568;7.870;2023-10-31T07:32:00;4.32;;;1.35;;
7116;SDS011;3600;48.568;7.870;2023-10-31T07:34:28;2.33;;;1.67;;
7116;SDS011;3600;48.568;7.870;2023-10-31T07:36:55;4.40;;;1.83;;
7116;SDS011;3600;48.568;7.870;2023-10-31T07:39:23;2.17;;;1.55;;
7116;SDS011;3600;48.568;7.870;2023-10-31T07:41:49;2.38;;;1.52;;
7116;SDS011;3600;48.568;7.870;2023-10-31T07:44:16;5.13;;;1.40;;
7116;SDS011;3600;48.568;7.870;2023-10-31T07:46:43;2.30;;;1.10;;
7116;SDS011;3600;48.568;7.870;2023-10-31T07:49:10;1.85;;;1.60;;
7116;SDS011;3600;48.568;7.870;2023-10-31T07:51:37;1.40;;;1.30;;
7116;SDS011;3600;48.568;7.870;2023-10-31T07:54:03;2.25;;;1.73;;
7116;SDS011;3600;48.568;7.870;2023-10-31T07:56:30;6.53;;;1.65;;
7116;SDS011;3600;48.568;7.870;2023-10-31T07:58:59;6.53;;;1.92;;
7116;SDS011;3600;48.568;7.870;2023-10-31T08:01:25;2.45;;;2.03;;
7116;SDS011;3600;48.568;7.870;2023-10-31T08:03:54;4.30;;;2.17;;
7116;SDS011;3600;48.568;7.870;2023-10-31T08:06:21;4.85;;;2.28;;
7116;SDS011;3600;48.568;7.870;2023-10-31T08:08:48;3.00;;;2.03;;
7116;SDS011;3600;48.568;7.870;2023-10-31T08:11:15;6.32;;;1.80;;
7116;SDS011;3600;48.568;7.870;2023-10-31T08:13:42;3.22;;;1.55;;
7116;SDS011;3600;48.568;7.870;2023-10-31T08:16:09;1.88;;;1.63;;
7116;SDS011;3600;48.568;7.870;2023-10-31T08:18:36;4.65;;;1.77;;
7116;SDS011;3600;48.568;7.870;2023-10-31T08:21:03;2.60;;;1.80;;
7116;SDS011;3600;48.568;7.870;2023-10-31T08:23:30;2.30;;;1.60;;
7116;SDS011;3600;48.568;7.870;2023-10-31T08:25:57;1.42;;;1.30;;
7116;SDS011;3600;48.568;7.870;2023-10-31T08:28:23;4.13;;;1.50;;
7116;SDS011;3600;48.568;7.870;2023-10-31T08:30:50;2.90;;;1.67;;
7116;SDS011;3600;48.568;7.870;2023-10-31T08:33:17;4.35;;;1.63;;
7116;SDS011;3600;48.568;7.870;2023-10-31T08:35:44;3.75;;;1.67;;
7116;SDS011;3600;48.568;7.870;2023-10-31T08:38:11;3.22;;;1.60;;
7116;SDS011;3600;48.568;7.870;2023-10-31T08:40:52;4.72;;;1.60;;
7116;SDS011;3600;48.568;7.870;2023-10-31T08:43:19;2.13;;;1.90;;
7116;SDS011;3600;48.568;7.870;2023-10-31T08:45:46;4.15;;;2.42;;
7116;SDS011;3600;48.568;7.870;2023-10-31T08:48:13;6.13;;;2.17;;
7116;SDS011;3600;48.568;7.870;2023-10-31T08:50:42;2.65;;;2.00;;
7116;SDS011;3600;48.568;7.870;2023-10-31T08:53:09;3.13;;;2.13;;
7116;SDS011;3600;48.568;7.870;2023-10-31T08:55:36;3.00;;;1.60;;
7116;SDS011;3600;48.568;7.870;2023-10-31T08:58:03;2.88;;;1.70;;
7116;SDS011;3600;48.568;7.870;2023-10-31T09:00:30;3.92;;;1.80;;
7116;SDS011;3600;48.568;7.870;2023-10-31T09:02:57;1.77;;;1.45;;
7116;SDS011;3600;48.568;7.870;2023-10-31T09:05:24;2.45;;;1.50;;
7116;SDS011;3600;48.568;7.870;2023-10-31T09:07:50;5.90;;;2.25;;
7116;SDS011;3600;48.568;7.870;2023-10-31T09:10:17;3.33;;;1.35;;
7116;SDS011;3600;48.568;7.870;2023-10-31T09:12:44;3.03;;;1.27;;
7116;SDS011;3600;48.568;7.870;2023-10-31T09:15:12;3.75;;;1.42;;
7116;SDS011;3600;48.568;7.870;2023-10-31T09:17:40;2.47;;;1.52;;
7116;SDS011;3600;48.568;7.870;2023-10-31T09:20:07;2.17;;;1.40;;
7116;SDS011;3600;48.568;7.870;2023-10-31T09:22:34;4.18;;;1.58;;
7116;SDS011;3600;48.568;7.870;2023-10-31T09:25:01;4.07;;;1.60;;
7116;SDS011;3600;48.568;7.870;2023-10-31T09:27:28;4.38;;;1.70;;
7116;SDS011;3600;48.568;7.870;2023-10-31T09:29:55;3.70;;;1.33;;
7116;SDS011;3600;48.568;7.870;2023-10-31T09:32:22;8.18;;;2.08;;
7116;SDS011;3600;48.568;7.870;2023-10-31T09:34:49;5.10;;;2.50;;
7116;SDS011;3600;48.568;7.870;2023-10-31T09:37:16;2.83;;;1.58;;
7116;SDS011;3600;48.568;7.870;2023-10-31T09:39:43;2.72;;;1.27;;
7116;SDS011;3600;48.568;7.870;2023-10-31T09:42:10;3.95;;;1.60;;
7116;SDS011;3600;48.568;7.870;2023-10-31T09:44:37;3.15;;;1.30;;
7116;SDS011;3600;48.568;7.870;2023-10-31T09:47:04;2.13;;;1.20;;
7116;SDS011;3600;48.568;7.870;2023-10-31T09:49:32;2.92;;;1.38;;
7116;SDS011;3600;48.568;7.870;2023-10-31T09:52:00;2.88;;;1.52;;
7116;SDS011;3600;48.568;7.870;2023-10-31T09:54:28;3.10;;;1.48;;
7116;SDS011;3600;48.568;7.870;2023-10-31T09:56:55;2.88;;;1.25;;
7116;SDS011;3600;48.568;7.870;2023-10-31T09:59:22;2.28;;;1.00;;
7116;SDS011;3600;48.568;7.870;2023-10-31T10:01:49;2.10;;;1.60;;
7116;SDS011;3600;48.568;7.870;2023-10-31T10:04:16;4.45;;;1.55;;
7116;SDS011;3600;48.568;7.870;2023-10-31T10:07:18;2.00;;;1.20;;
7116;SDS011;3600;48.568;7.870;2023-10-31T10:09:44;2.42;;;1.27;;
7116;SDS011;3600;48.568;7.870;2023-10-31T10:12:13;1.73;;;1.38;;
7116;SDS011;3600;48.568;7.870;2023-10-31T10:14:41;1.30;;;0.90;;
7116;SDS011;3600;48.568;7.870;2023-10-31T10:17:13;2.95;;;2.10;;
7116;SDS011;3600;48.568;7.870;2023-10-31T10:19:41;2.20;;;1.35;;
7116;SDS011;3600;48.568;7.870;2023-10-31T10:22:08;2.33;;;1.77;;
7116;SDS011;3600;48.568;7.870;2023-10-31T10:24:38;2.30;;;1.63;;
7116;SDS011;3600;48.568;7.870;2023-10-31T10:27:06;3.83;;;1.60;;
7116;SDS011;3600;48.568;7.870;2023-10-31T10:29:34;3.53;;;1.25;;
7116;SDS011;3600;48.568;7.870;2023-10-31T10:32:06;1.83;;;1.30;;
7116;SDS011;3600;48.568;7.870;2023-10-31T10:34:35;1.73;;;1.40;;
7116;SDS011;3600;48.568;7.870;2023-10-31T10:37:04;1.58;;;1.02;;
7116;SDS011;3600;48.568;7.870;2023-10-31T10:39:32;2.83;;;1.15;;
7116;SDS011;3600;48.568;7.870;2023-10-31T10:42:01;2.30;;;1.30;;
7116;SDS011;3600;48.568;7.870;2023-10-31T10:44:31;0.73;;;0.73;;
7116;SDS011;3600;48.568;7.870;2023-10-31T10:47:04;2.03;;;0.88;;
7116;SDS011;3600;48.568;7.870;2023-10-31T10:49:33;2.38;;;1.10;;
7116;SDS011;3600;48.568;7.870;2023-10-31T10:52:27;1.00;;;0.85;;
7116;SDS011;3600;48.568;7.870;2023-10-31T10:58:05;1.80;;;0.80;;
7116;SDS011;3600;48.568;7.870;2023-10-31T11:00:27;0.90;;;0.90;;
7116;SDS011;3600;48.568;7.870;2023-10-31T11:02:55;2.47;;;1.02;;
7116;SDS011;3600;48.568;7.870;2023-10-31T11:05:23;5.10;;;1.27;;
7116;SDS011;3600;48.568;7.870;2023-10-31T11:07:51;1.48;;;1.10;;
7116;SDS011;3600;48.568;7.870;2023-10-31T11:10:19;1.63;;;1.17;;
7116;SDS011;3600;48.568;7.870;2023-10-31T11:12:46;2.22;;;1.00;;
7116;SDS011;3600;48.568;7.870;2023-10-31T11:15:17;1.08;;;0.90;;
7116;SDS011;3600;48.568;7.870;2023-10-31T11:17:45;6.40;;;3.42;;
7116;SDS011;3600;48.568;7.870;2023-10-31T11:20:15;11.20;;;5.55;;
7116;SDS011;3600;48.568;7.870;2023-10-31T11:22:44;14.85;;;7.07;;
7116;SDS011;3600;48.568;7.870;2023-10-31T11:25:15;7.60;;;4.25;;
7116;SDS011;3600;48.568;7.870;2023-10-31T11:27:57;3.80;;;2.40;;
7116;SDS011;3600;48.568;7.870;2023-10-31T11:30:36;4.18;;;1.88;;
7116;SDS011;3600;48.568;7.870;2023-10-31T11:33:03;3.70;;;2.30;;
7116;SDS011;3600;48.568;7.870;2023-10-31T11:35:35;3.47;;;2.55;;
7116;SDS011;3600;48.568;7.870;2023-10-31T11:38:05;1.38;;;1.27;;
7116;SDS011;3600;48.568;7.870;2023-10-31T11:40:34;1.70;;;1.30;;
7116;SDS011;3600;48.568;7.870;2023-10-31T11:43:05;1.20;;;1.10;;
7116;SDS011;3600;48.568;7.870;2023-10-31T11:48:08;1.90;;;1.20;;
7116;SDS011;3600;48.568;7.870;2023-10-31T11:50:36;2.47;;;1.27;;
7116;SDS011;3600;48.568;7.870;2023-10-31T11:53:14;0.90;;;0.65;;
7116;SDS011;3600;48.568;7.870;2023-10-31T11:55:44;2.45;;;1.05;;
7116;SDS011;3600;48.568;7.870;2023-10-31T12:00:50;1.58;;;1.02;;
7116;SDS011;3600;48.568;7.870;2023-10-31T12:03:21;2.67;;;2.00;;
7116;SDS011;3600;48.568;7.870;2023-10-31T12:05:52;1.63;;;1.52;;
7116;SDS011;3600;48.568;7.870;2023-10-31T12:08:27;3.40;;;1.30;;
7116;SDS011;3600;48.568;7.870;2023-10-31T12:16:27;2.65;;;1.80;;
7116;SDS011;3600;48.568;7.870;2023-10-31T12:18:56;1.98;;;1.75;;
7116;SDS011;3600;48.568;7.870;2023-10-31T12:24:24;1.23;;;1.13;;
7116;SDS011;3600;48.568;7.870;2023-10-31T12:26:50;0.95;;;0.90;;
7116;SDS011;3600;48.568;7.870;2023-10-31T12:29:18;3.15;;;1.27;;
7116;SDS011;3600;48.568;7.870;2023-10-31T12:34:15;1.42;;;1.33;;
7116;SDS011;3600;48.568;7.870;2023-10-31T12:36:43;1.27;;;0.90;;
7116;SDS011;3600;48.568;7.870;2023-10-31T12:39:11;1.60;;;1.02;;
7116;SDS011;3600;48.568;7.870;2023-10-31T12:41:39;1.83;;;0.90;;
7116;SDS011;3600;48.568;7.870;2023-10-31T12:44:07;2.22;;;1.02;;
7116;SDS011;3600;48.568;7.870;2023-10-31T12:46:38;1.10;;;1.00;;
7116;SDS011;3600;48.568;7.870;2023-10-31T12:49:16;2.25;;;1.00;;
7116;SDS011;3600;48.568;7.870;2023-10-31T12:54:34;1.73;;;1.25;;
7116;SDS011;3600;48.568;7.870;2023-10-31T12:59:34;2.10;;;1.27;;
7116;SDS011;3600;48.568;7.870;2023-10-31T13:02:05;1.17;;;0.80;;
7116;SDS011;3600;48.568;7.870;2023-10-31T13:04:34;2.90;;;1.00;;
7116;SDS011;3600;48.568;7.870;2023-10-31T13:07:02;1.25;;;1.10;;
7116;SDS011;3600;48.568;7.870;2023-10-31T13:09:31;2.05;;;1.15;;
7116;SDS011;3600;48.568;7.870;2023-10-31T13:12:09;1.77;;;1.10;;
7116;SDS011;3600;48.568;7.870;2023-10-31T13:14:37;2.40;;;1.25;;
7116;SDS011;3600;48.568;7.870;2023-10-31T13:17:05;0.93;;;0.93;;
7116;SDS011;3600;48.568;7.870;2023-10-31T13:19:32;2.08;;;1.10;;
7116;SDS011;3600;48.568;7.870;2023-10-31T13:21:59;1.60;;;1.50;;
7116;SDS011;3600;48.568;7.870;2023-10-31T13:24:26;2.58;;;1.40;;
7116;SDS011;3600;48.568;7.870;2023-10-31T13:26:53;1.05;;;0.93;;
7116;SDS011;3600;48.568;7.870;2023-10-31T13:29:21;1.45;;;1.33;;
7116;SDS011;3600;48.568;7.870;2023-10-31T13:31:52;4.55;;;1.63;;
7116;SDS011;3600;48.568;7.870;2023-10-31T13:34:19;1.60;;;1.10;;
7116;SDS011;3600;48.568;7.870;2023-10-31T13:36:46;3.90;;;1.80;;
7116;SDS011;3600;48.568;7.870;2023-10-31T13:39:14;2.75;;;1.35;;
7116;SDS011;3600;48.568;7.870;2023-10-31T13:41:42;4.40;;;1.33;;
7116;SDS011;3600;48.568;7.870;2023-10-31T13:44:08;5.20;;;3.50;;
7116;SDS011;3600;48.568;7.870;2023-10-31T13:46:35;5.07;;;2.78;;
7116;SDS011;3600;48.568;7.870;2023-10-31T13:49:02;3.55;;;1.77;;
7116;SDS011;3600;48.568;7.870;2023-10-31T13:51:29;2.08;;;1.20;;
7116;SDS011;3600;48.568;7.870;2023-10-31T13:53:56;1.80;;;1.05;;
7116;SDS011;3600;48.568;7.870;2023-10-31T13:56:23;1.80;;;1.40;;
7116;SDS011;3600;48.568;7.870;2023-10-31T13:58:50;3.83;;;1.70;;
7116;SDS011;3600;48.568;7.870;2023-10-31T14:01:17;1.30;;;1.15;;
7116;SDS011;3600;48.568;7.870;2023-10-31T14:03:45;2.10;;;1.35;;
7116;SDS011;3600;48.568;7.870;2023-10-31T14:06:12;2.72;;;1.48;;
7116;SDS011;3600;48.568;7.870;2023-10-31T14:08:40;3.55;;;1.55;;
7116;SDS011;3600;48.568;7.870;2023-10-31T14:11:07;1.67;;;1.23;;
7116;SDS011;3600;48.568;7.870;2023-10-31T14:13:37;0.95;;;0.70;;
7116;SDS011;3600;48.568;7.870;2023-10-31T14:16:04;1.42;;;0.88;;
7116;SDS011;3600;48.568;7.870;2023-10-31T14:18:32;0.75;;;0.75;;
7116;SDS011;3600;48.568;7.870;2023-10-31T14:21:00;1.05;;;0.73;;
7116;SDS011;3600;48.568;7.870;2023-10-31T14:23:26;0.70;;;0.70;;
7116;SDS011;3600;48.568;7.870;2023-10-31T14:25:53;0.60;;;0.60;;
7116;SDS011;3600;48.568;7.870;2023-10-31T14:28:20;1.50;;;0.70;;
7116;SDS011;3600;48.568;7.870;2023-10-31T14:30:47;1.33;;;0.50;;
7116;SDS011;3600;48.568;7.870;2023-10-31T14:33:14;1.23;;;0.90;;
7116;SDS011;3600;48.568;7.870;2023-10-31T14:35:41;1.83;;;0.65;;
7116;SDS011;3600;48.568;7.870;2023-10-31T14:38:07;1.02;;;0.50;;
7116;SDS011;3600;48.568;7.870;2023-10-31T14:40:34;0.50;;;0.50;;
7116;SDS011;3600;48.568;7.870;2023-10-31T14:43:01;1.30;;;0.50;;
7116;SDS011;3600;48.568;7.870;2023-10-31T14:45:28;1.45;;;0.68;;
7116;SDS011;3600;48.568;7.870;2023-10-31T14:47:55;0.50;;;0.50;;
7116;SDS011;3600;48.568;7.870;2023-10-31T14:50:21;1.83;;;0.43;;
7116;SDS011;3600;48.568;7.870;2023-10-31T14:52:48;0.43;;;0.43;;
7116;SDS011;3600;48.568;7.870;2023-10-31T14:55:15;0.40;;;0.40;;
7116;SDS011;3600;48.568;7.870;2023-10-31T14:57:42;0.40;;;0.40;;
7116;SDS011;3600;48.568;7.870;2023-10-31T15:00:09;1.20;;;0.38;;
7116;SDS011;3600;48.568;7.870;2023-10-31T15:02:38;0.55;;;0.30;;
7116;SDS011;3600;48.568;7.870;2023-10-31T15:05:05;0.50;;;0.45;;
7116;SDS011;3600;48.568;7.870;2023-10-31T15:07:33;0.68;;;0.40;;
7116;SDS011;3600;48.568;7.870;2023-10-31T15:09:59;0.25;;;0.25;;
7116;SDS011;3600;48.568;7.870;2023-10-31T15:12:29;2.08;;;0.60;;
7116;SDS011;3600;48.568;7.870;2023-10-31T15:14:55;1.27;;;1.15;;
7116;SDS011;3600;48.568;7.870;2023-10-31T15:17:22;0.75;;;0.75;;
7116;SDS011;3600;48.568;7.870;2023-10-31T15:19:49;0.30;;;0.30;;
7116;SDS011;3600;48.568;7.870;2023-10-31T15:22:16;1.00;;;0.70;;
7116;SDS011;3600;48.568;7.870;2023-10-31T15:24:43;0.63;;;0.30;;
7116;SDS011;3600;48.568;7.870;2023-10-31T15:27:10;0.43;;;0.43;;
7116;SDS011;3600;48.568;7.870;2023-10-31T15:29:41;0.85;;;0.40;;
7116;SDS011;3600;48.568;7.870;2023-10-31T15:32:08;0.40;;;0.40;;
7116;SDS011;3600;48.568;7.870;2023-10-31T15:34:35;0.90;;;0.90;;
7116;SDS011;3600;48.568;7.870;2023-10-31T15:37:05;0.40;;;0.40;;
7116;SDS011;3600;48.568;7.870;2023-10-31T15:39:32;0.40;;;0.40;;
7116;SDS011;3600;48.568;7.870;2023-10-31T15:41:59;0.70;;;0.70;;